createdAt,value
2015-02-22T00:00:05.444Z,99069
2015-02-22T00:00:24.109Z,99069
2015-02-22T00:00:42.789Z,99066
2015-02-22T00:01:01.442Z,99074
2015-02-22T00:01:20.123Z,99069
2015-02-22T00:01:38.785Z,99074
2015-02-22T00:01:57.468Z,99068
2015-02-22T00:02:16.139Z,99068
2015-02-22T00:02:34.815Z,99068
2015-02-22T00:02:53.473Z,99071
2015-02-22T00:03:12.160Z,99066
2015-02-22T00:03:30.818Z,99071
2015-02-22T00:03:49.489Z,99068
2015-02-22T00:04:08.171Z,99071
2015-02-22T00:04:26.829Z,99063
2015-02-22T00:04:45.523Z,99066
2015-02-22T00:05:04.174Z,99060
2015-02-22T00:05:22.859Z,99071
2015-02-22T00:05:41.527Z,99063
2015-02-22T00:06:00.180Z,99074
2015-02-22T00:06:18.849Z,99060
2015-02-22T00:06:37.537Z,99060
2015-02-22T00:06:56.194Z,99066
2015-02-22T00:07:14.863Z,99066
2015-02-22T00:07:33.545Z,99069
2015-02-22T00:07:52.219Z,99071
2015-02-22T00:08:10.876Z,99069
2015-02-22T00:08:29.543Z,99069
2015-02-22T00:08:48.232Z,99063
2015-02-22T00:09:06.902Z,99069
2015-02-22T00:09:25.584Z,99066
2015-02-22T00:09:44.258Z,99069
2015-02-22T00:10:02.939Z,99057
2015-02-22T00:10:21.612Z,99077
2015-02-22T00:10:40.299Z,99069
2015-02-22T00:10:58.970Z,99071
2015-02-22T00:11:17.629Z,99063
2015-02-22T00:11:36.316Z,99057
2015-02-22T00:11:54.985Z,99069
2015-02-22T00:12:13.669Z,99054
2015-02-22T00:12:32.343Z,99077
2015-02-22T00:12:51.022Z,99066
2015-02-22T00:13:09.697Z,99063
2015-02-22T00:13:28.392Z,99071
2015-02-22T00:13:47.055Z,99063
2015-02-22T00:14:05.727Z,99060
2015-02-22T00:14:24.400Z,99069
2015-02-22T00:14:43.079Z,99066
2015-02-22T00:15:01.746Z,99063
2015-02-22T00:15:20.414Z,99066
2015-02-22T00:15:39.095Z,99068
2015-02-22T00:15:57.787Z,99060
2015-02-22T00:16:16.442Z,99071
2015-02-22T00:16:35.132Z,99063
2015-02-22T00:16:53.791Z,99068
2015-02-22T00:17:11.810Z,99057
2015-02-22T00:17:30.501Z,99071
2015-02-22T00:17:49.181Z,99071
2015-02-22T00:18:07.843Z,99068
2015-02-22T00:18:26.497Z,99066
2015-02-22T00:18:45.343Z,99060
2015-02-22T00:19:03.998Z,99066
2015-02-22T00:19:22.687Z,99063
2015-02-22T00:19:41.367Z,99068
2015-02-22T00:20:00.024Z,99066
2015-02-22T00:20:18.704Z,99069
2015-02-22T00:20:37.365Z,99066
2015-02-22T00:20:56.034Z,99063
2015-02-22T00:21:14.705Z,99054
2015-02-22T00:21:33.377Z,99074
2015-02-22T00:21:52.063Z,99063
2015-02-22T00:22:10.742Z,99051
2015-02-22T00:22:29.410Z,99060
2015-02-22T00:22:48.072Z,99069
2015-02-22T00:23:06.754Z,99066
2015-02-22T00:23:25.425Z,99063
2015-02-22T00:23:44.095Z,99057
2015-02-22T00:24:02.765Z,99063
2015-02-22T00:24:21.441Z,99057
2015-02-22T00:24:39.947Z,99063
2015-02-22T00:24:57.986Z,99057
2015-02-22T00:25:16.507Z,99057
2015-02-22T00:25:35.168Z,99063
2015-02-22T00:25:53.839Z,99060
2015-02-22T00:26:12.531Z,99060
2015-02-22T00:26:31.207Z,99060
2015-02-22T00:26:49.710Z,99057
2015-02-22T00:27:08.386Z,99057
2015-02-22T00:27:27.059Z,99063
2015-02-22T00:27:45.742Z,99060
2015-02-22T00:28:04.410Z,99060
2015-02-22T00:28:23.080Z,99057
2015-02-22T00:28:41.750Z,99063
2015-02-22T00:29:00.416Z,99057
2015-02-22T00:29:19.310Z,99063
2015-02-22T00:29:37.772Z,99057
2015-02-22T00:29:56.441Z,99060
2015-02-22T00:30:15.112Z,99063
2015-02-22T00:30:33.775Z,99044
2015-02-22T00:30:52.465Z,99057
2015-02-22T00:31:11.136Z,99060
2015-02-22T00:31:29.806Z,99057
2015-02-22T00:31:48.476Z,99066
2015-02-22T00:32:07.148Z,99066
2015-02-22T00:32:25.806Z,99066
2015-02-22T00:32:43.832Z,99063
2015-02-22T00:33:02.364Z,99066
2015-02-22T00:33:21.026Z,99054
2015-02-22T00:33:39.708Z,99069
2015-02-22T00:33:58.392Z,99060
2015-02-22T00:34:17.069Z,99063
2015-02-22T00:34:35.740Z,99069
2015-02-22T00:34:54.398Z,99057
2015-02-22T00:35:13.072Z,99069
2015-02-22T00:35:31.756Z,99060
2015-02-22T00:35:50.428Z,99063
2015-02-22T00:36:09.097Z,99071
2015-02-22T00:36:27.781Z,99063
2015-02-22T00:36:46.438Z,99066
2015-02-22T00:37:05.118Z,99069
2015-02-22T00:37:23.784Z,99069
2015-02-22T00:37:42.481Z,99063
2015-02-22T00:38:01.146Z,99063
2015-02-22T00:38:19.801Z,99069
2015-02-22T00:38:38.488Z,99074
2015-02-22T00:38:57.160Z,99063
2015-02-22T00:39:15.825Z,99083
2015-02-22T00:39:34.496Z,99080
2015-02-22T00:39:53.172Z,99074
2015-02-22T00:40:11.855Z,99063
2015-02-22T00:40:30.504Z,99063
2015-02-22T00:40:49.186Z,99063
2015-02-22T00:41:07.845Z,99077
2015-02-22T00:41:26.517Z,99066
2015-02-22T00:41:45.205Z,99069
2015-02-22T00:42:03.875Z,99077
2015-02-22T00:42:22.544Z,99074
2015-02-22T00:42:41.221Z,99069
2015-02-22T00:42:59.892Z,99066
2015-02-22T00:43:18.544Z,99083
2015-02-22T00:43:37.442Z,99063
2015-02-22T00:43:56.104Z,99069
2015-02-22T00:44:14.777Z,99074
2015-02-22T00:44:33.445Z,99083
2015-02-22T00:44:52.104Z,99074
2015-02-22T00:45:10.792Z,99074
2015-02-22T00:45:29.467Z,99071
2015-02-22T00:45:48.139Z,99086
2015-02-22T00:46:06.802Z,99083
2015-02-22T00:46:25.479Z,99077
2015-02-22T00:46:44.150Z,99077
2015-02-22T00:47:02.821Z,99077
2015-02-22T00:47:21.499Z,99071
2015-02-22T00:47:40.154Z,99077
2015-02-22T00:47:58.835Z,99071
2015-02-22T00:48:17.494Z,99077
2015-02-22T00:48:36.167Z,99083
2015-02-22T00:48:54.838Z,99071
2015-02-22T00:49:13.509Z,99077
2015-02-22T00:49:32.189Z,99077
2015-02-22T00:49:50.848Z,99071
2015-02-22T00:50:09.519Z,99086
2015-02-22T00:50:28.188Z,99077
2015-02-22T00:50:46.864Z,99074
2015-02-22T00:51:05.547Z,99077
2015-02-22T00:51:24.217Z,99089
2015-02-22T00:51:42.879Z,99080
2015-02-22T00:52:01.562Z,99083
2015-02-22T00:52:20.222Z,99086
2015-02-22T00:52:38.913Z,99074
2015-02-22T00:52:57.577Z,99083
2015-02-22T00:53:16.233Z,99080
2015-02-22T00:53:34.901Z,99080
2015-02-22T00:53:53.587Z,99083
2015-02-22T00:54:12.258Z,99080
2015-02-22T00:54:30.922Z,99089
2015-02-22T00:54:49.609Z,99092
2015-02-22T00:55:08.265Z,99089
2015-02-22T00:55:26.935Z,99089
2015-02-22T00:55:45.609Z,99074
2015-02-22T00:56:04.277Z,99097
2015-02-22T00:56:22.962Z,99097
2015-02-22T00:56:41.623Z,99086
2015-02-22T00:57:00.307Z,99092
2015-02-22T00:57:19.164Z,99083
2015-02-22T00:57:37.847Z,99086
2015-02-22T00:57:56.523Z,99092
2015-02-22T00:58:15.198Z,99103
2015-02-22T00:58:33.853Z,99083
2015-02-22T00:58:52.533Z,99086
2015-02-22T00:59:11.207Z,99092
2015-02-22T00:59:29.862Z,99086
2015-02-22T00:59:48.544Z,99094
2015-02-22T01:00:07.203Z,99092
2015-02-22T01:00:25.876Z,99092
2015-02-22T01:00:44.564Z,99092
2015-02-22T01:01:03.218Z,99089
2015-02-22T01:01:21.895Z,99097
2015-02-22T01:01:40.582Z,99094
2015-02-22T01:01:59.239Z,99097
2015-02-22T01:02:17.762Z,99092
2015-02-22T01:02:36.433Z,99097
2015-02-22T01:02:55.102Z,99097
2015-02-22T01:03:13.786Z,99095
2015-02-22T01:03:32.445Z,99100
2015-02-22T01:03:51.113Z,99094
2015-02-22T01:04:09.795Z,99092
2015-02-22T01:04:28.455Z,99100
2015-02-22T01:04:47.148Z,99103
2015-02-22T01:05:05.818Z,99103
2015-02-22T01:05:24.475Z,99097
2015-02-22T01:05:43.149Z,99103
2015-02-22T01:06:01.820Z,99103
2015-02-22T01:06:20.504Z,99100
2015-02-22T01:06:39.165Z,99106
2015-02-22T01:06:57.831Z,99106
2015-02-22T01:07:16.505Z,99100
2015-02-22T01:07:34.540Z,99103
2015-02-22T01:07:53.194Z,99100
2015-02-22T01:08:12.027Z,99100
2015-02-22T01:08:30.716Z,99097
2015-02-22T01:08:49.378Z,99109
2015-02-22T01:09:08.046Z,99103
2015-02-22T01:09:26.728Z,99109
2015-02-22T01:09:45.396Z,99106
2015-02-22T01:10:04.067Z,99103
2015-02-22T01:10:22.739Z,99106
2015-02-22T01:10:41.424Z,99103
2015-02-22T01:11:00.080Z,99109
2015-02-22T01:11:18.748Z,99112
2015-02-22T01:11:37.436Z,99106
2015-02-22T01:11:56.112Z,99112
2015-02-22T01:12:14.778Z,99109
2015-02-22T01:12:32.795Z,99103
2015-02-22T01:12:51.481Z,99123
2015-02-22T01:13:10.154Z,99117
2015-02-22T01:13:28.824Z,99112
2015-02-22T01:13:47.493Z,99112
2015-02-22T01:14:06.162Z,99106
2015-02-22T01:14:24.818Z,99112
2015-02-22T01:14:43.492Z,99106
2015-02-22T01:15:02.178Z,99115
2015-02-22T01:15:20.837Z,99112
2015-02-22T01:15:39.525Z,99115
2015-02-22T01:15:58.193Z,99117
2015-02-22T01:16:16.861Z,99106
2015-02-22T01:16:35.516Z,99112
2015-02-22T01:16:54.358Z,99120
2015-02-22T01:17:13.045Z,99115
2015-02-22T01:17:31.711Z,99115
2015-02-22T01:17:50.385Z,99112
2015-02-22T01:18:09.054Z,99109
2015-02-22T01:18:27.711Z,99115
2015-02-22T01:18:46.518Z,99115
2015-02-22T01:19:05.202Z,99109
2015-02-22T01:19:23.860Z,99115
2015-02-22T01:19:42.543Z,99117
2015-02-22T01:20:01.198Z,99115
2015-02-22T01:20:19.866Z,99112
2015-02-22T01:20:38.541Z,99115
2015-02-22T01:20:57.212Z,99115
2015-02-22T01:21:15.895Z,99120
2015-02-22T01:21:34.551Z,99115
2015-02-22T01:21:53.237Z,99112
2015-02-22T01:22:11.905Z,99123
2015-02-22T01:22:30.584Z,99115
2015-02-22T01:22:49.254Z,99115
2015-02-22T01:23:07.919Z,99126
2015-02-22T01:23:26.576Z,99109
2015-02-22T01:23:45.252Z,99117
2015-02-22T01:24:03.930Z,99115
2015-02-22T01:24:22.591Z,99118
2015-02-22T01:24:41.277Z,99118
2015-02-22T01:24:59.941Z,99118
2015-02-22T01:25:18.608Z,99120
2015-02-22T01:25:37.263Z,99120
2015-02-22T01:25:55.935Z,99132
2015-02-22T01:26:14.608Z,99123
2015-02-22T01:26:33.428Z,99126
2015-02-22T01:26:52.090Z,99118
2015-02-22T01:27:10.758Z,99112
2015-02-22T01:27:29.435Z,99120
2015-02-22T01:27:48.121Z,99123
2015-02-22T01:28:06.781Z,99132
2015-02-22T01:28:25.439Z,99112
2015-02-22T01:28:44.112Z,99126
2015-02-22T01:29:02.803Z,99123
2015-02-22T01:29:21.469Z,99132
2015-02-22T01:29:40.136Z,99120
2015-02-22T01:29:58.796Z,99138
2015-02-22T01:30:17.475Z,99115
2015-02-22T01:30:36.153Z,99135
2015-02-22T01:30:54.814Z,99132
2015-02-22T01:31:13.500Z,99123
2015-02-22T01:31:32.174Z,99126
2015-02-22T01:31:50.829Z,99123
2015-02-22T01:32:09.497Z,99132
2015-02-22T01:32:28.182Z,99126
2015-02-22T01:32:46.846Z,99120
2015-02-22T01:33:05.514Z,99123
2015-02-22T01:33:24.203Z,99123
2015-02-22T01:33:42.868Z,99132
2015-02-22T01:34:01.536Z,99123
2015-02-22T01:34:20.225Z,99132
2015-02-22T01:34:38.892Z,99126
2015-02-22T01:34:57.550Z,99132
2015-02-22T01:35:16.241Z,99135
2015-02-22T01:35:34.265Z,99129
2015-02-22T01:35:52.940Z,99132
2015-02-22T01:36:11.612Z,99132
2015-02-22T01:36:30.259Z,99129
2015-02-22T01:36:48.929Z,99129
2015-02-22T01:37:07.598Z,99126
2015-02-22T01:37:26.267Z,99126
2015-02-22T01:37:44.957Z,99141
2015-02-22T01:38:03.622Z,99135
2015-02-22T01:38:22.277Z,99129
2015-02-22T01:38:40.957Z,99132
2015-02-22T01:38:59.627Z,99135
2015-02-22T01:39:18.296Z,99126
2015-02-22T01:39:36.971Z,99126
2015-02-22T01:39:55.633Z,99129
2015-02-22T01:40:14.300Z,99132
2015-02-22T01:40:32.973Z,99126
2015-02-22T01:40:51.660Z,99138
2015-02-22T01:41:10.326Z,99135
2015-02-22T01:41:28.987Z,99135
2015-02-22T01:41:47.660Z,99126
2015-02-22T01:42:06.333Z,99138
2015-02-22T01:42:25.006Z,99132
2015-02-22T01:42:43.688Z,99138
2015-02-22T01:43:02.343Z,99138
2015-02-22T01:43:21.013Z,99135
2015-02-22T01:43:39.685Z,99132
2015-02-22T01:43:58.361Z,99143
2015-02-22T01:44:17.032Z,99146
2015-02-22T01:44:35.705Z,99154
2015-02-22T01:44:54.391Z,99143
2015-02-22T01:45:13.058Z,99138
2015-02-22T01:45:31.735Z,99146
2015-02-22T01:45:50.395Z,99146
2015-02-22T01:46:09.070Z,99148
2015-02-22T01:46:27.743Z,99154
2015-02-22T01:46:46.431Z,99148
2015-02-22T01:47:05.099Z,99151
2015-02-22T01:47:23.755Z,99154
2015-02-22T01:47:42.425Z,99151
2015-02-22T01:48:01.110Z,99146
2015-02-22T01:48:19.768Z,99143
2015-02-22T01:48:38.442Z,99157
2015-02-22T01:48:57.113Z,99154
2015-02-22T01:49:15.797Z,99148
2015-02-22T01:49:34.463Z,99148
2015-02-22T01:49:53.119Z,99160
2015-02-22T01:50:11.803Z,99154
2015-02-22T01:50:30.476Z,99160
2015-02-22T01:50:49.174Z,99154
2015-02-22T01:51:07.842Z,99148
2015-02-22T01:51:26.501Z,99157
2015-02-22T01:51:45.170Z,99157
2015-02-22T01:52:03.841Z,99160
2015-02-22T01:52:22.508Z,99154
2015-02-22T01:52:41.179Z,99160
2015-02-22T01:52:59.868Z,99160
2015-02-22T01:53:18.530Z,99154
2015-02-22T01:53:37.192Z,99163
2015-02-22T01:53:55.875Z,99160
2015-02-22T01:54:14.563Z,99151
2015-02-22T01:54:33.081Z,99160
2015-02-22T01:54:51.762Z,99151
2015-02-22T01:55:10.408Z,99160
2015-02-22T01:55:29.089Z,99154
2015-02-22T01:55:47.749Z,99157
2015-02-22T01:56:06.445Z,99154
2015-02-22T01:56:25.085Z,99154
2015-02-22T01:56:43.773Z,99154
2015-02-22T01:57:02.450Z,99151
2015-02-22T01:57:21.118Z,99151
2015-02-22T01:57:39.775Z,99154
2015-02-22T01:57:58.457Z,99151
2015-02-22T01:58:17.115Z,99165
2015-02-22T01:58:35.783Z,99160
2015-02-22T01:58:54.459Z,99160
2015-02-22T01:59:13.153Z,99165
2015-02-22T01:59:31.825Z,99154
2015-02-22T01:59:50.489Z,99157
2015-02-22T02:00:09.149Z,99163
2015-02-22T02:00:27.830Z,99160
2015-02-22T02:00:46.487Z,99165
2015-02-22T02:01:05.162Z,99163
2015-02-22T02:01:23.833Z,99163
2015-02-22T02:01:42.508Z,99165
2015-02-22T02:02:01.193Z,99154
2015-02-22T02:02:19.859Z,99171
2015-02-22T02:02:38.516Z,99165
2015-02-22T02:02:57.200Z,99171
2015-02-22T02:03:15.860Z,99165
2015-02-22T02:03:34.534Z,99165
2015-02-22T02:03:53.222Z,99163
2015-02-22T02:04:11.892Z,99163
2015-02-22T02:04:30.549Z,99163
2015-02-22T02:04:49.232Z,99163
2015-02-22T02:05:07.902Z,99160
2015-02-22T02:05:26.565Z,99163
2015-02-22T02:05:45.250Z,99157
2015-02-22T02:06:03.919Z,99165
2015-02-22T02:06:22.577Z,99168
2015-02-22T02:06:41.246Z,99171
2015-02-22T02:06:59.932Z,99171
2015-02-22T02:07:18.599Z,99171
2015-02-22T02:07:37.272Z,99160
2015-02-22T02:07:55.946Z,99174
2015-02-22T02:08:14.614Z,99171
2015-02-22T02:08:33.279Z,99171
2015-02-22T02:08:51.958Z,99171
2015-02-22T02:09:10.628Z,99180
2015-02-22T02:09:29.281Z,99180
2015-02-22T02:09:47.964Z,99174
2015-02-22T02:10:06.639Z,99171
2015-02-22T02:10:25.314Z,99174
2015-02-22T02:10:43.965Z,99180
2015-02-22T02:11:02.635Z,99174
2015-02-22T02:11:21.306Z,99177
2015-02-22T02:11:39.988Z,99183
2015-02-22T02:11:58.646Z,99177
2015-02-22T02:12:17.329Z,99177
2015-02-22T02:12:35.991Z,99174
2015-02-22T02:12:54.676Z,99171
2015-02-22T02:13:13.352Z,99177
2015-02-22T02:13:32.009Z,99180
2015-02-22T02:13:50.690Z,99171
2015-02-22T02:14:09.346Z,99171
2015-02-22T02:14:28.032Z,99174
2015-02-22T02:14:46.694Z,99174
2015-02-22T02:15:05.369Z,99180
2015-02-22T02:15:24.049Z,99177
2015-02-22T02:15:42.717Z,99177
2015-02-22T02:16:01.386Z,99186
2015-02-22T02:16:20.045Z,99183
2015-02-22T02:16:38.719Z,99188
2015-02-22T02:16:57.396Z,99183
2015-02-22T02:17:16.065Z,99171
2015-02-22T02:17:34.732Z,99168
2015-02-22T02:17:53.416Z,99183
2015-02-22T02:18:12.074Z,99180
2015-02-22T02:18:30.766Z,99186
2015-02-22T02:18:49.439Z,99180
2015-02-22T02:19:08.108Z,99177
2015-02-22T02:19:26.765Z,99177
2015-02-22T02:19:45.448Z,99186
2015-02-22T02:20:04.106Z,99186
2015-02-22T02:20:22.776Z,99183
2015-02-22T02:20:41.448Z,99183
2015-02-22T02:21:00.126Z,99183
2015-02-22T02:21:18.799Z,99177
2015-02-22T02:21:37.469Z,99188
2015-02-22T02:21:56.141Z,99186
2015-02-22T02:22:14.809Z,99186
2015-02-22T02:22:33.481Z,99186
2015-02-22T02:22:52.167Z,99183
2015-02-22T02:23:10.839Z,99186
2015-02-22T02:23:29.498Z,99183
2015-02-22T02:23:48.178Z,99183
2015-02-22T02:24:06.853Z,99191
2015-02-22T02:24:25.520Z,99188
2015-02-22T02:24:44.174Z,99183
2015-02-22T02:25:02.862Z,99188
2015-02-22T02:25:21.527Z,99180
2015-02-22T02:25:40.205Z,99197
2015-02-22T02:25:58.872Z,99177
2015-02-22T02:26:17.532Z,99186
2015-02-22T02:26:36.218Z,99186
2015-02-22T02:26:54.874Z,99186
2015-02-22T02:27:13.549Z,99188
2015-02-22T02:27:32.226Z,99180
2015-02-22T02:27:50.898Z,99186
2015-02-22T02:28:09.567Z,99186
2015-02-22T02:28:28.245Z,99186
2015-02-22T02:28:46.919Z,99186
2015-02-22T02:29:05.586Z,99183
2015-02-22T02:29:24.249Z,99186
2015-02-22T02:29:42.924Z,99186
2015-02-22T02:30:01.596Z,99183
2015-02-22T02:30:20.279Z,99197
2015-02-22T02:30:38.944Z,99183
2015-02-22T02:30:57.615Z,99180
2015-02-22T02:31:16.268Z,99189
2015-02-22T02:31:35.152Z,99186
2015-02-22T02:31:53.817Z,99186
2015-02-22T02:32:12.495Z,99186
2015-02-22T02:32:31.160Z,99189
2015-02-22T02:32:49.838Z,99191
2015-02-22T02:33:08.521Z,99191
2015-02-22T02:33:27.175Z,99189
2015-02-22T02:33:45.844Z,99188
2015-02-22T02:34:04.519Z,99200
2015-02-22T02:34:23.186Z,99191
2015-02-22T02:34:41.227Z,99191
2015-02-22T02:34:59.900Z,99197
2015-02-22T02:35:18.552Z,99186
2015-02-22T02:35:37.233Z,99191
2015-02-22T02:35:55.905Z,99197
2015-02-22T02:36:14.580Z,99194
2015-02-22T02:36:33.231Z,99189
2015-02-22T02:36:51.901Z,99197
2015-02-22T02:37:10.572Z,99200
2015-02-22T02:37:29.241Z,99200
2015-02-22T02:37:47.906Z,99194
2015-02-22T02:38:06.595Z,99197
2015-02-22T02:38:25.264Z,99197
2015-02-22T02:38:43.937Z,99194
2015-02-22T02:39:02.604Z,99200
2015-02-22T02:39:21.262Z,99200
2015-02-22T02:39:39.930Z,99197
2015-02-22T02:39:58.621Z,99200
2015-02-22T02:40:17.295Z,99194
2015-02-22T02:40:35.968Z,99189
2015-02-22T02:40:54.630Z,99209
2015-02-22T02:41:13.299Z,99209
2015-02-22T02:41:31.979Z,99200
2015-02-22T02:41:50.649Z,99206
2015-02-22T02:42:09.321Z,99206
2015-02-22T02:42:27.975Z,99212
2015-02-22T02:42:46.659Z,99200
2015-02-22T02:43:05.340Z,99197
2015-02-22T02:43:24.008Z,99197
2015-02-22T02:43:42.680Z,99203
2015-02-22T02:44:01.347Z,99203
2015-02-22T02:44:20.016Z,99203
2015-02-22T02:44:38.685Z,99197
2015-02-22T02:44:57.355Z,99194
2015-02-22T02:45:16.038Z,99209
2015-02-22T02:45:34.707Z,99197
2015-02-22T02:45:53.375Z,99203
2015-02-22T02:46:12.030Z,99191
2015-02-22T02:46:30.720Z,99197
2015-02-22T02:46:49.383Z,99197
2015-02-22T02:47:08.049Z,99209
2015-02-22T02:47:26.732Z,99197
2015-02-22T02:47:45.389Z,99200
2015-02-22T02:48:04.075Z,99200
2015-02-22T02:48:22.730Z,99206
2015-02-22T02:48:41.398Z,99200
2015-02-22T02:49:00.084Z,99197
2015-02-22T02:49:18.741Z,99209
2015-02-22T02:49:37.413Z,99200
2015-02-22T02:49:56.096Z,99197
2015-02-22T02:50:14.752Z,99191
2015-02-22T02:50:33.420Z,99194
2015-02-22T02:50:52.093Z,99194
2015-02-22T02:51:10.782Z,99186
2015-02-22T02:51:29.470Z,99200
2015-02-22T02:51:48.107Z,99197
2015-02-22T02:52:06.794Z,99203
2015-02-22T02:52:25.463Z,99197
2015-02-22T02:52:44.129Z,99197
2015-02-22T02:53:02.803Z,99194
2015-02-22T02:53:21.465Z,99200
2015-02-22T02:53:40.147Z,99197
2015-02-22T02:53:58.804Z,99194
2015-02-22T02:54:17.483Z,99203
2015-02-22T02:54:36.135Z,99197
2015-02-22T02:54:54.815Z,99197
2015-02-22T02:55:13.487Z,99194
2015-02-22T02:55:32.151Z,99203
2015-02-22T02:55:50.837Z,99203
2015-02-22T02:56:09.495Z,99200
2015-02-22T02:56:28.178Z,99203
2015-02-22T02:56:46.833Z,99191
2015-02-22T02:57:04.859Z,99203
2015-02-22T02:57:23.528Z,99203
2015-02-22T02:57:42.201Z,99203
2015-02-22T02:58:00.876Z,99197
2015-02-22T02:58:19.547Z,99197
2015-02-22T02:58:38.216Z,99197
2015-02-22T02:58:56.889Z,99209
2015-02-22T02:59:15.555Z,99203
2015-02-22T02:59:34.240Z,99206
2015-02-22T02:59:52.759Z,99209
2015-02-22T03:00:11.419Z,99209
2015-02-22T03:00:30.102Z,99203
2015-02-22T03:00:48.772Z,99200
2015-02-22T03:01:07.436Z,99203
2015-02-22T03:01:26.103Z,99200
2015-02-22T03:01:44.786Z,99203
2015-02-22T03:02:03.466Z,99206
2015-02-22T03:02:22.137Z,99203
2015-02-22T03:02:40.790Z,99209
2015-02-22T03:02:59.463Z,99206
2015-02-22T03:03:18.131Z,99200
2015-02-22T03:03:36.814Z,99206
2015-02-22T03:03:55.488Z,99206
2015-02-22T03:04:14.145Z,99209
2015-02-22T03:04:32.821Z,99214
2015-02-22T03:04:51.492Z,99209
2015-02-22T03:05:10.162Z,99209
2015-02-22T03:05:28.841Z,99203
2015-02-22T03:05:47.497Z,99214
2015-02-22T03:06:06.381Z,99206
2015-02-22T03:06:25.052Z,99200
2015-02-22T03:06:43.712Z,99203
2015-02-22T03:07:02.383Z,99197
2015-02-22T03:07:21.051Z,99203
2015-02-22T03:07:39.725Z,99212
2015-02-22T03:07:58.410Z,99206
2015-02-22T03:08:17.277Z,99209
2015-02-22T03:08:35.954Z,99206
2015-02-22T03:08:54.623Z,99206
2015-02-22T03:09:13.286Z,99212
2015-02-22T03:09:31.966Z,99203
2015-02-22T03:09:50.635Z,99203
2015-02-22T03:10:09.296Z,99206
2015-02-22T03:10:27.975Z,99206
2015-02-22T03:10:46.632Z,99214
2015-02-22T03:11:05.325Z,99212
2015-02-22T03:11:23.985Z,99203
2015-02-22T03:11:42.651Z,99212
2015-02-22T03:12:01.331Z,99209
2015-02-22T03:12:19.991Z,99203
2015-02-22T03:12:38.660Z,99203
2015-02-22T03:12:57.341Z,99212
2015-02-22T03:13:16.000Z,99203
2015-02-22T03:13:34.684Z,99209
2015-02-22T03:13:53.339Z,99212
2015-02-22T03:14:12.011Z,99220
2015-02-22T03:14:30.702Z,99212
2015-02-22T03:14:49.368Z,99214
2015-02-22T03:15:08.047Z,99209
2015-02-22T03:15:26.713Z,99214
2015-02-22T03:15:45.373Z,99217
2015-02-22T03:16:04.062Z,99212
2015-02-22T03:16:22.720Z,99217
2015-02-22T03:16:41.388Z,99206
2015-02-22T03:17:00.060Z,99212
2015-02-22T03:17:18.733Z,99209
2015-02-22T03:17:37.418Z,99212
2015-02-22T03:17:56.075Z,99209
2015-02-22T03:18:14.743Z,99217
2015-02-22T03:18:33.421Z,99217
2015-02-22T03:18:52.104Z,99214
2015-02-22T03:19:10.770Z,99212
2015-02-22T03:19:29.453Z,99217
2015-02-22T03:19:48.128Z,99209
2015-02-22T03:20:06.779Z,99220
2015-02-22T03:20:25.449Z,99209
2015-02-22T03:20:44.133Z,99209
2015-02-22T03:21:02.803Z,99217
2015-02-22T03:21:20.832Z,99220
2015-02-22T03:21:39.486Z,99220
2015-02-22T03:21:58.177Z,99217
2015-02-22T03:22:16.843Z,99217
2015-02-22T03:22:35.501Z,99217
2015-02-22T03:22:54.181Z,99214
2015-02-22T03:23:12.852Z,99226
2015-02-22T03:23:31.526Z,99217
2015-02-22T03:23:50.192Z,99214
2015-02-22T03:24:08.857Z,99220
2015-02-22T03:24:27.547Z,99217
2015-02-22T03:24:46.203Z,99226
2015-02-22T03:25:04.878Z,99226
2015-02-22T03:25:23.552Z,99220
2015-02-22T03:25:42.229Z,99223
2015-02-22T03:26:00.888Z,99235
2015-02-22T03:26:19.575Z,99220
2015-02-22T03:26:38.246Z,99226
2015-02-22T03:26:56.900Z,99226
2015-02-22T03:27:15.573Z,99235
2015-02-22T03:27:34.238Z,99232
2015-02-22T03:27:52.928Z,99226
2015-02-22T03:28:11.593Z,99237
2015-02-22T03:28:30.270Z,99232
2015-02-22T03:28:49.130Z,99237
2015-02-22T03:29:07.814Z,99226
2015-02-22T03:29:26.469Z,99232
2015-02-22T03:29:45.138Z,99226
2015-02-22T03:30:03.808Z,99226
2015-02-22T03:30:22.495Z,99226
2015-02-22T03:30:41.156Z,99235
2015-02-22T03:30:59.822Z,99232
2015-02-22T03:31:18.491Z,99220
2015-02-22T03:31:36.519Z,99237
2015-02-22T03:31:55.399Z,99229
2015-02-22T03:32:14.056Z,99229
2015-02-22T03:32:32.740Z,99240
2015-02-22T03:32:51.415Z,99246
2015-02-22T03:33:10.084Z,99243
2015-02-22T03:33:28.739Z,99237
2015-02-22T03:33:47.407Z,99246
2015-02-22T03:34:06.091Z,99252
2015-02-22T03:34:24.759Z,99243
2015-02-22T03:34:43.430Z,99240
2015-02-22T03:35:02.097Z,99243
2015-02-22T03:35:20.762Z,99243
2015-02-22T03:35:39.447Z,99246
2015-02-22T03:35:58.099Z,99234
2015-02-22T03:36:16.771Z,99237
2015-02-22T03:36:35.444Z,99243
2015-02-22T03:36:54.118Z,99243
2015-02-22T03:37:12.798Z,99246
2015-02-22T03:37:31.453Z,99246
2015-02-22T03:37:50.145Z,99240
2015-02-22T03:38:08.810Z,99237
2015-02-22T03:38:27.631Z,99249
2015-02-22T03:38:46.317Z,99232
2015-02-22T03:39:04.988Z,99240
2015-02-22T03:39:23.656Z,99240
2015-02-22T03:39:42.314Z,99243
2015-02-22T03:40:00.994Z,99257
2015-02-22T03:40:19.658Z,99260
2015-02-22T03:40:38.327Z,99240
2015-02-22T03:40:57.003Z,99249
2015-02-22T03:41:15.670Z,99249
2015-02-22T03:41:34.343Z,99254
2015-02-22T03:41:53.025Z,99252
2015-02-22T03:42:11.695Z,99254
2015-02-22T03:42:30.367Z,99252
2015-02-22T03:42:49.034Z,99252
2015-02-22T03:43:07.712Z,99246
2015-02-22T03:43:26.382Z,99257
2015-02-22T03:43:45.053Z,99252
2015-02-22T03:44:03.710Z,99257
2015-02-22T03:44:22.387Z,99269
2015-02-22T03:44:41.063Z,99260
2015-02-22T03:44:59.719Z,99257
2015-02-22T03:45:18.391Z,99254
2015-02-22T03:45:37.080Z,99257
2015-02-22T03:45:55.738Z,99257
2015-02-22T03:46:14.424Z,99260
2015-02-22T03:46:33.091Z,99254
2015-02-22T03:46:51.768Z,99260
2015-02-22T03:47:10.440Z,99266
2015-02-22T03:47:29.099Z,99260
2015-02-22T03:47:47.791Z,99266
2015-02-22T03:48:06.440Z,99269
2015-02-22T03:48:25.112Z,99266
2015-02-22T03:48:43.784Z,99280
2015-02-22T03:49:02.452Z,99263
2015-02-22T03:49:21.128Z,99263
2015-02-22T03:49:39.801Z,99272
2015-02-22T03:49:58.485Z,99269
2015-02-22T03:50:17.153Z,99266
2015-02-22T03:50:35.809Z,99266
2015-02-22T03:50:54.489Z,99272
2015-02-22T03:51:13.144Z,99274
2015-02-22T03:51:31.824Z,99263
2015-02-22T03:51:50.497Z,99272
2015-02-22T03:52:09.172Z,99283
2015-02-22T03:52:27.836Z,99274
2015-02-22T03:52:46.517Z,99274
2015-02-22T03:53:05.174Z,99269
2015-02-22T03:53:24.063Z,99266
2015-02-22T03:53:41.870Z,99269
2015-02-22T03:54:00.553Z,99272
2015-02-22T03:54:19.210Z,99277
2015-02-22T03:54:37.894Z,99274
2015-02-22T03:54:56.546Z,99272
2015-02-22T03:55:15.215Z,99277
2015-02-22T03:55:33.884Z,99274
2015-02-22T03:55:52.564Z,99272
2015-02-22T03:56:11.219Z,99274
2015-02-22T03:56:29.894Z,99283
2015-02-22T03:56:48.561Z,99277
2015-02-22T03:57:07.244Z,99277
2015-02-22T03:57:25.913Z,99272
2015-02-22T03:57:44.568Z,99272
2015-02-22T03:58:03.250Z,99277
2015-02-22T03:58:22.133Z,99269
2015-02-22T03:58:40.601Z,99274
2015-02-22T03:58:59.254Z,99277
2015-02-22T03:59:17.930Z,99277
2015-02-22T03:59:36.584Z,99277
2015-02-22T03:59:55.261Z,99283
2015-02-22T04:00:13.931Z,99277